sensor_id;sensor_type;location;lat;lon;timestamp;pressure;altitude;pressure_sealevel;temperature;humidity
74958;BME280;63741;42.624;26.276;2023-02-28T00:01:32;100420.91;;;9.12;75.88
74958;BME280;63741;42.624;26.276;2023-02-28T00:03:59;100425.53;;;8.93;76.55
74958;BME280;63741;42.624;26.276;2023-02-28T00:06:26;100424.38;;;8.98;75.76
74958;BME280;63741;42.624;26.276;2023-02-28T00:08:53;100428.31;;;9.05;76.02
74958;BME280;63741;42.624;26.276;2023-02-28T00:11:21;100421.78;;;8.97;76.57
74958;BME280;63741;42.624;26.276;2023-02-28T00:13:48;100428.22;;;8.77;76.93
74958;BME280;63741;42.624;26.276;2023-02-28T00:16:21;100430.34;;;8.70;77.52
74958;BME280;63741;42.624;26.276;2023-02-28T00:18:48;100427.81;;;8.69;77.30
74958;BME280;63741;42.624;26.276;2023-02-28T00:21:17;100425.59;;;8.77;77.23
74958;BME280;63741;42.624;26.276;2023-02-28T00:23:44;100427.03;;;8.82;76.71
74958;BME280;63741;42.624;26.276;2023-02-28T00:26:11;100415.47;;;8.85;76.56
74958;BME280;63741;42.624;26.276;2023-02-28T00:28:40;100424.31;;;8.84;76.63
74958;BME280;63741;42.624;26.276;2023-02-28T00:31:07;100425.66;;;8.91;76.38
74958;BME280;63741;42.624;26.276;2023-02-28T00:33:34;100423.31;;;8.71;76.49
74958;BME280;63741;42.624;26.276;2023-02-28T00:36:06;100429.16;;;9.06;76.43
74958;BME280;63741;42.624;26.276;2023-02-28T00:38:36;100429.38;;;9.03;76.18
74958;BME280;63741;42.624;26.276;2023-02-28T00:41:03;100443.16;;;9.08;75.38
74958;BME280;63741;42.624;26.276;2023-02-28T00:43:37;100440.88;;;9.02;76.46
74958;BME280;63741;42.624;26.276;2023-02-28T00:46:05;100451.09;;;8.92;75.75
74958;BME280;63741;42.624;26.276;2023-02-28T00:48:32;100453.50;;;8.81;76.00
74958;BME280;63741;42.624;26.276;2023-02-28T00:50:59;100448.28;;;8.79;76.90
74958;BME280;63741;42.624;26.276;2023-02-28T00:53:27;100431.28;;;8.85;75.45
74958;BME280;63741;42.624;26.276;2023-02-28T00:55:56;100434.19;;;8.80;75.89
74958;BME280;63741;42.624;26.276;2023-02-28T00:58:24;100439.63;;;8.77;75.72
74958;BME280;63741;42.624;26.276;2023-02-28T01:00:52;100436.69;;;8.68;75.97
74958;BME280;63741;42.624;26.276;2023-02-28T01:03:20;100435.91;;;8.66;76.62
74958;BME280;63741;42.624;26.276;2023-02-28T01:05:48;100448.34;;;8.64;77.36
74958;BME280;63741;42.624;26.276;2023-02-28T01:08:16;100447.47;;;8.63;76.44
74958;BME280;63741;42.624;26.276;2023-02-28T01:10:43;100451.06;;;8.46;78.32
74958;BME280;63741;42.624;26.276;2023-02-28T01:13:10;100457.44;;;8.42;77.29
74958;BME280;63741;42.624;26.276;2023-02-28T01:15:38;100448.84;;;8.39;77.83
74958;BME280;63741;42.624;26.276;2023-02-28T01:18:08;100459.97;;;8.44;77.62
74958;BME280;63741;42.624;26.276;2023-02-28T01:20:38;100465.06;;;8.31;77.42
74958;BME280;63741;42.624;26.276;2023-02-28T01:23:05;100466.59;;;8.35;77.85
74958;BME280;63741;42.624;26.276;2023-02-28T01:25:36;100458.84;;;8.32;76.69
74958;BME280;63741;42.624;26.276;2023-02-28T01:28:04;100455.44;;;8.30;77.27
74958;BME280;63741;42.624;26.276;2023-02-28T01:30:33;100463.91;;;8.37;77.18
74958;BME280;63741;42.624;26.276;2023-02-28T01:33:01;100455.13;;;8.36;77.86
74958;BME280;63741;42.624;26.276;2023-02-28T01:35:27;100460.91;;;8.27;78.08
74958;BME280;63741;42.624;26.276;2023-02-28T01:37:54;100468.47;;;8.17;77.94
74958;BME280;63741;42.624;26.276;2023-02-28T01:40:26;100468.47;;;8.17;77.79
74958;BME280;63741;42.624;26.276;2023-02-28T01:42:53;100490.63;;;8.29;77.56
74958;BME280;63741;42.624;26.276;2023-02-28T01:45:30;100494.81;;;8.17;78.25
74958;BME280;63741;42.624;26.276;2023-02-28T01:48:04;100505.00;;;8.23;77.82
74958;BME280;63741;42.624;26.276;2023-02-28T01:50:35;100496.06;;;8.26;77.79
74958;BME280;63741;42.624;26.276;2023-02-28T01:53:07;100481.28;;;8.23;77.18
74958;BME280;63741;42.624;26.276;2023-02-28T01:55:37;100488.50;;;8.04;78.04
74958;BME280;63741;42.624;26.276;2023-02-28T01:58:05;100496.31;;;8.21;78.06
74958;BME280;63741;42.624;26.276;2023-02-28T02:00:35;100501.19;;;8.13;78.62
74958;BME280;63741;42.624;26.276;2023-02-28T02:03:08;100496.06;;;8.26;77.94
74958;BME280;63741;42.624;26.276;2023-02-28T02:05:38;100498.91;;;8.23;78.30
74958;BME280;63741;42.624;26.276;2023-02-28T02:08:08;100501.59;;;8.21;77.96
74958;BME280;63741;42.624;26.276;2023-02-28T02:22:00;100518.63;;;7.98;78.84
74958;BME280;63741;42.624;26.276;2023-02-28T02:24:58;100509.63;;;8.02;nan
74958;BME280;63741;42.624;26.276;2023-02-28T02:36:35;100518.97;;;7.75;79.70
74958;BME280;63741;42.624;26.276;2023-02-28T02:41:53;100515.53;;;7.90;79.81
74958;BME280;63741;42.624;26.276;2023-02-28T02:44:24;100508.44;;;7.92;79.02
74958;BME280;63741;42.624;26.276;2023-02-28T02:46:57;100507.72;;;7.89;78.61
74958;BME280;63741;42.624;26.276;2023-02-28T02:49:30;100526.63;;;7.97;79.42
74958;BME280;63741;42.624;26.276;2023-02-28T02:52:02;100523.69;;;7.85;78.77
74958;BME280;63741;42.624;26.276;2023-02-28T02:54:42;100513.22;;;8.01;79.16
74958;BME280;63741;42.624;26.276;2023-02-28T02:57:15;100509.47;;;8.05;78.50
74958;BME280;63741;42.624;26.276;2023-02-28T02:59:45;100524.09;;;7.95;79.38
74958;BME280;63741;42.624;26.276;2023-02-28T03:02:14;100535.03;;;8.03;77.80
74958;BME280;63741;42.624;26.276;2023-02-28T03:05:03;100545.97;;;8.13;77.47
74958;BME280;63741;42.624;26.276;2023-02-28T03:07:31;100543.53;;;7.93;78.38
74958;BME280;63741;42.624;26.276;2023-02-28T03:09:58;100539.31;;;8.06;78.65
74958;BME280;63741;42.624;26.276;2023-02-28T03:12:38;100533.56;;;8.15;78.00
74958;BME280;63741;42.624;26.276;2023-02-28T03:15:20;100532.94;;;8.10;78.67
74958;BME280;63741;42.624;26.276;2023-02-28T03:18:04;100560.88;;;7.97;78.29
74958;BME280;63741;42.624;26.276;2023-02-28T03:20:40;100550.44;;;7.95;79.73
74958;BME280;63741;42.624;26.276;2023-02-28T03:23:19;100557.16;;;7.83;79.23
74958;BME280;63741;42.624;26.276;2023-02-28T03:26:08;100556.22;;;7.67;80.70
74958;BME280;63741;42.624;26.276;2023-02-28T03:31:30;100555.69;;;7.95;79.54
74958;BME280;63741;42.624;26.276;2023-02-28T03:34:04;100556.16;;;7.86;80.06
74958;BME280;63741;42.624;26.276;2023-02-28T03:36:37;100563.44;;;7.81;79.69
74958;BME280;63741;42.624;26.276;2023-02-28T03:39:16;100565.63;;;7.73;79.43
74958;BME280;63741;42.624;26.276;2023-02-28T03:41:52;100563.84;;;7.73;80.43
74958;BME280;63741;42.624;26.276;2023-02-28T03:44:24;100556.59;;;7.94;78.59
74958;BME280;63741;42.624;26.276;2023-02-28T03:47:01;100557.06;;;7.85;79.44
74958;BME280;63741;42.624;26.276;2023-02-28T03:49:38;100556.41;;;7.81;78.97
74958;BME280;63741;42.624;26.276;2023-02-28T03:52:09;100558.25;;;7.97;79.33
74958;BME280;63741;42.624;26.276;2023-02-28T03:54:47;100560.97;;;7.78;78.79
74958;BME280;63741;42.624;26.276;2023-02-28T04:02:40;100564.31;;;7.64;80.27
74958;BME280;63741;42.624;26.276;2023-02-28T04:05:08;100566.00;;;7.82;78.25
74958;BME280;63741;42.624;26.276;2023-02-28T04:07:35;100555.94;;;7.56;80.28
74958;BME280;63741;42.624;26.276;2023-02-28T04:10:03;100566.94;;;7.64;79.20
74958;BME280;63741;42.624;26.276;2023-02-28T04:12:30;100567.84;;;7.63;79.33
74958;BME280;63741;42.624;26.276;2023-02-28T04:14:57;100573.03;;;7.47;80.40
74958;BME280;63741;42.624;26.276;2023-02-28T04:17:24;100579.25;;;7.46;80.48
74958;BME280;63741;42.624;26.276;2023-02-28T04:19:51;100570.28;;;7.50;80.51
74958;BME280;63741;42.624;26.276;2023-02-28T04:22:17;100579.94;;;7.67;79.67
74958;BME280;63741;42.624;26.276;2023-02-28T04:24:44;100575.59;;;7.66;78.67
74958;BME280;63741;42.624;26.276;2023-02-28T04:27:11;100592.19;;;7.68;79.24
74958;BME280;63741;42.624;26.276;2023-02-28T04:29:38;100585.88;;;7.53;80.49
74958;BME280;63741;42.624;26.276;2023-02-28T04:32:05;100586.97;;;7.49;79.27
74958;BME280;63741;42.624;26.276;2023-02-28T04:34:32;100609.09;;;7.45;79.23
74958;BME280;63741;42.624;26.276;2023-02-28T04:36:59;100598.06;;;7.56;80.19
74958;BME280;63741;42.624;26.276;2023-02-28T04:39:43;100594.88;;;7.49;80.19
74958;BME280;63741;42.624;26.276;2023-02-28T04:42:10;100595.66;;;7.51;79.01
74958;BME280;63741;42.624;26.276;2023-02-28T04:44:38;100595.50;;;7.54;79.32
74958;BME280;63741;42.624;26.276;2023-02-28T04:47:05;100597.72;;;7.45;79.62
74958;BME280;63741;42.624;26.276;2023-02-28T04:49:32;100594.72;;;7.52;80.29
74958;BME280;63741;42.624;26.276;2023-02-28T04:51:59;100598.13;;;7.54;80.32
74958;BME280;63741;42.624;26.276;2023-02-28T04:54:26;100594.13;;;7.65;78.73
74958;BME280;63741;42.624;26.276;2023-02-28T04:56:53;100609.97;;;7.63;79.71
74958;BME280;63741;42.624;26.276;2023-02-28T04:59:19;100601.69;;;7.71;79.13
74958;BME280;63741;42.624;26.276;2023-02-28T05:01:48;100603.34;;;7.73;79.34
74958;BME280;63741;42.624;26.276;2023-02-28T05:04:16;100602.06;;;7.63;78.78
74958;BME280;63741;42.624;26.276;2023-02-28T05:06:44;100603.09;;;7.60;79.69
74958;BME280;63741;42.624;26.276;2023-02-28T05:09:10;100615.00;;;7.68;78.97
74958;BME280;63741;42.624;26.276;2023-02-28T05:11:40;100617.81;;;7.65;78.71
74958;BME280;63741;42.624;26.276;2023-02-28T05:14:12;100622.78;;;7.71;79.64
74958;BME280;63741;42.624;26.276;2023-02-28T05:16:40;100627.34;;;7.67;79.19
74958;BME280;63741;42.624;26.276;2023-02-28T05:19:07;100628.25;;;7.66;78.48
74958;BME280;63741;42.624;26.276;2023-02-28T05:21:36;100627.72;;;7.59;79.53
74958;BME280;63741;42.624;26.276;2023-02-28T05:24:06;100625.56;;;7.50;78.93
74958;BME280;63741;42.624;26.276;2023-02-28T05:26:36;100625.16;;;7.58;79.91
74958;BME280;63741;42.624;26.276;2023-02-28T05:29:04;100633.84;;;7.60;79.14
74958;BME280;63741;42.624;26.276;2023-02-28T05:31:31;100637.25;;;7.62;78.63
74958;BME280;63741;42.624;26.276;2023-02-28T05:33:59;100643.47;;;7.78;77.99
74958;BME280;63741;42.624;26.276;2023-02-28T05:36:26;100664.16;;;7.69;78.23
74958;BME280;63741;42.624;26.276;2023-02-28T05:38:53;100654.50;;;7.50;79.44
74958;BME280;63741;42.624;26.276;2023-02-28T05:41:20;100661.41;;;7.70;78.43
74958;BME280;63741;42.624;26.276;2023-02-28T05:43:48;100665.63;;;7.74;78.23
74958;BME280;63741;42.624;26.276;2023-02-28T05:46:15;100670.06;;;7.91;77.82
74958;BME280;63741;42.624;26.276;2023-02-28T05:48:42;100670.06;;;7.91;77.62
74958;BME280;63741;42.624;26.276;2023-02-28T05:51:12;100668.72;;;7.82;77.64
74958;BME280;63741;42.624;26.276;2023-02-28T05:53:39;100676.56;;;8.01;77.22
74958;BME280;63741;42.624;26.276;2023-02-28T05:56:06;100678.34;;;8.01;76.89
74958;BME280;63741;42.624;26.276;2023-02-28T05:58:33;100679.63;;;7.75;78.78
74958;BME280;63741;42.624;26.276;2023-02-28T06:01:32;100680.19;;;7.81;77.76
74958;BME280;63741;42.624;26.276;2023-02-28T06:04:00;100678.63;;;7.77;78.63
74958;BME280;63741;42.624;26.276;2023-02-28T06:06:27;100678.31;;;7.83;77.63
74958;BME280;63741;42.624;26.276;2023-02-28T06:08:56;100688.31;;;7.94;77.13
74958;BME280;63741;42.624;26.276;2023-02-28T06:11:23;100682.16;;;7.95;76.62
74958;BME280;63741;42.624;26.276;2023-02-28T06:13:56;100685.69;;;7.94;77.05
74958;BME280;63741;42.624;26.276;2023-02-28T06:16:24;100683.69;;;7.82;78.95
74958;BME280;63741;42.624;26.276;2023-02-28T06:18:51;100676.78;;;7.79;78.59
74958;BME280;63741;42.624;26.276;2023-02-28T06:21:19;100677.72;;;7.78;78.45
74958;BME280;63741;42.624;26.276;2023-02-28T06:23:46;100681.44;;;7.92;78.14
74958;BME280;63741;42.624;26.276;2023-02-28T06:26:13;100675.06;;;7.78;78.23
74958;BME280;63741;42.624;26.276;2023-02-28T06:28:40;100672.47;;;7.96;78.46
74958;BME280;63741;42.624;26.276;2023-02-28T06:31:08;100673.06;;;8.01;77.60
74958;BME280;63741;42.624;26.276;2023-02-28T06:33:37;100673.59;;;8.07;76.77
74958;BME280;63741;42.624;26.276;2023-02-28T06:36:05;100685.56;;;8.15;76.60
74958;BME280;63741;42.624;26.276;2023-02-28T06:38:32;100687.31;;;7.97;78.26
74958;BME280;63741;42.624;26.276;2023-02-28T06:41:00;100685.41;;;8.00;77.59
74958;BME280;63741;42.624;26.276;2023-02-28T06:43:29;100681.75;;;8.03;77.20
74958;BME280;63741;42.624;26.276;2023-02-28T06:45:59;100688.56;;;8.24;76.95
74958;BME280;63741;42.624;26.276;2023-02-28T06:48:26;100692.50;;;8.33;76.23
74958;BME280;63741;42.624;26.276;2023-02-28T06:51:17;100691.84;;;8.47;75.20
74958;BME280;63741;42.624;26.276;2023-02-28T06:53:44;100691.53;;;8.53;74.70
74958;BME280;63741;42.624;26.276;2023-02-28T06:56:15;100686.63;;;8.63;73.85
74958;BME280;63741;42.624;26.276;2023-02-28T06:58:45;100688.16;;;8.67;72.88
74958;BME280;63741;42.624;26.276;2023-02-28T07:01:13;100678.47;;;8.67;73.88
74958;BME280;63741;42.624;26.276;2023-02-28T07:03:40;100693.00;;;8.58;73.47
74958;BME280;63741;42.624;26.276;2023-02-28T07:06:07;100703.44;;;8.60;73.07
74958;BME280;63741;42.624;26.276;2023-02-28T07:08:34;100702.75;;;8.56;74.93
74958;BME280;63741;42.624;26.276;2023-02-28T07:11:02;100706.56;;;8.51;75.73
74958;BME280;63741;42.624;26.276;2023-02-28T07:13:30;100718.69;;;8.38;75.06
74958;BME280;63741;42.624;26.276;2023-02-28T07:15:59;100709.56;;;8.26;75.90
74958;BME280;63741;42.624;26.276;2023-02-28T07:18:27;100701.06;;;8.38;74.89
74958;BME280;63741;42.624;26.276;2023-02-28T07:20:54;100713.84;;;8.11;75.79
74958;BME280;63741;42.624;26.276;2023-02-28T07:23:21;100714.91;;;8.07;76.50
74958;BME280;63741;42.624;26.276;2023-02-28T07:25:49;100718.47;;;7.89;77.58
74958;BME280;63741;42.624;26.276;2023-02-28T07:28:16;100714.28;;;8.02;76.82
74958;BME280;63741;42.624;26.276;2023-02-28T07:30:43;100707.19;;;8.04;77.46
74958;BME280;63741;42.624;26.276;2023-02-28T07:33:10;100704.09;;;8.13;76.91
74958;BME280;63741;42.624;26.276;2023-02-28T07:35:37;100705.00;;;8.29;74.99
74958;BME280;63741;42.624;26.276;2023-02-28T07:38:04;100701.59;;;8.27;75.32
74958;BME280;63741;42.624;26.276;2023-02-28T07:40:31;100700.41;;;8.16;74.92
74958;BME280;63741;42.624;26.276;2023-02-28T07:42:59;100717.63;;;8.05;74.88
74958;BME280;63741;42.624;26.276;2023-02-28T07:45:27;100715.84;;;8.23;73.97
74958;BME280;63741;42.624;26.276;2023-02-28T07:47:55;100721.22;;;8.22;74.59
74958;BME280;63741;42.624;26.276;2023-02-28T07:50:22;100720.66;;;8.15;73.44
74958;BME280;63741;42.624;26.276;2023-02-28T07:52:52;100728.66;;;8.31;73.41
74958;BME280;63741;42.624;26.276;2023-02-28T07:55:19;100725.56;;;8.23;73.06
74958;BME280;63741;42.624;26.276;2023-02-28T07:57:46;100728.88;;;8.61;72.28
74958;BME280;63741;42.624;26.276;2023-02-28T08:00:13;100723.47;;;8.64;72.40
74958;BME280;63741;42.624;26.276;2023-02-28T08:02:40;100713.28;;;8.56;71.31
74958;BME280;63741;42.624;26.276;2023-02-28T08:05:07;100713.25;;;8.41;72.83
74958;BME280;63741;42.624;26.276;2023-02-28T08:07:34;100719.91;;;8.48;72.47
74958;BME280;63741;42.624;26.276;2023-02-28T08:10:01;100719.13;;;8.46;73.40
74958;BME280;63741;42.624;26.276;2023-02-28T08:12:28;100721.31;;;8.88;71.95
74958;BME280;63741;42.624;26.276;2023-02-28T08:14:55;100716.59;;;8.77;71.12
74958;BME280;63741;42.624;26.276;2023-02-28T08:17:22;100715.59;;;8.80;71.96
74958;BME280;63741;42.624;26.276;2023-02-28T08:19:49;100714.59;;;8.65;71.69
74958;BME280;63741;42.624;26.276;2023-02-28T08:22:16;100716.28;;;8.83;71.56
74958;BME280;63741;42.624;26.276;2023-02-28T08:24:43;100721.28;;;8.72;72.25
74958;BME280;63741;42.624;26.276;2023-02-28T08:27:10;100706.97;;;9.09;70.90
74958;BME280;63741;42.624;26.276;2023-02-28T08:29:38;100707.44;;;8.84;70.57
74958;BME280;63741;42.624;26.276;2023-02-28T08:32:06;100717.06;;;9.01;71.40
74958;BME280;63741;42.624;26.276;2023-02-28T08:34:46;100717.06;;;8.85;71.07
74958;BME280;63741;42.624;26.276;2023-02-28T08:37:13;100713.59;;;9.01;70.82
74958;BME280;63741;42.624;26.276;2023-02-28T08:39:40;100697.69;;;9.18;69.88
74958;BME280;63741;42.624;26.276;2023-02-28T08:42:07;100700.84;;;9.09;69.99
74958;BME280;63741;42.624;26.276;2023-02-28T08:44:34;100706.06;;;9.26;70.74
74958;BME280;63741;42.624;26.276;2023-02-28T08:47:01;100710.94;;;9.01;70.96
74958;BME280;63741;42.624;26.276;2023-02-28T08:49:28;100711.19;;;8.96;70.89
74958;BME280;63741;42.624;26.276;2023-02-28T08:51:55;100716.03;;;8.88;71.02
74958;BME280;63741;42.624;26.276;2023-02-28T08:54:24;100716.50;;;8.79;71.96
74958;BME280;63741;42.624;26.276;2023-02-28T08:56:51;100726.44;;;8.91;71.31
74958;BME280;63741;42.624;26.276;2023-02-28T08:59:18;100736.69;;;9.13;70.49
74958;BME280;63741;42.624;26.276;2023-02-28T09:01:45;100735.31;;;9.06;70.67
74958;BME280;63741;42.624;26.276;2023-02-28T09:04:12;100729.22;;;9.21;69.68
74958;BME280;63741;42.624;26.276;2023-02-28T09:06:42;100723.59;;;9.11;71.23
74958;BME280;63741;42.624;26.276;2023-02-28T09:09:11;100719.25;;;9.26;70.28
74958;BME280;63741;42.624;26.276;2023-02-28T09:11:37;100729.97;;;9.23;70.98
74958;BME280;63741;42.624;26.276;2023-02-28T09:14:04;100717.38;;;9.28;70.54
74958;BME280;63741;42.624;26.276;2023-02-28T09:16:32;100728.97;;;9.42;69.12
74958;BME280;63741;42.624;26.276;2023-02-28T09:19:00;100720.19;;;9.57;70.03
74958;BME280;63741;42.624;26.276;2023-02-28T09:21:27;100718.50;;;9.40;69.11
74958;BME280;63741;42.624;26.276;2023-02-28T09:23:55;100724.56;;;9.42;68.83
74958;BME280;63741;42.624;26.276;2023-02-28T09:26:25;100738.00;;;9.38;70.28
74958;BME280;63741;42.624;26.276;2023-02-28T09:29:04;100736.72;;;9.29;69.76
74958;BME280;63741;42.624;26.276;2023-02-28T09:31:31;100735.88;;;9.60;70.24
74958;BME280;63741;42.624;26.276;2023-02-28T09:33:58;100736.38;;;9.82;68.74
74958;BME280;63741;42.624;26.276;2023-02-28T09:36:26;100732.88;;;9.66;68.14
74958;BME280;63741;42.624;26.276;2023-02-28T09:39:09;100717.78;;;9.84;68.13
74958;BME280;63741;42.624;26.276;2023-02-28T09:41:40;100717.66;;;10.01;67.32
74958;BME280;63741;42.624;26.276;2023-02-28T09:44:40;100712.38;;;10.01;67.78
74958;BME280;63741;42.624;26.276;2023-02-28T09:47:12;100706.16;;;9.86;67.47
74958;BME280;63741;42.624;26.276;2023-02-28T09:49:42;100720.00;;;9.76;68.44
74958;BME280;63741;42.624;26.276;2023-02-28T09:52:15;100721.16;;;9.56;68.96
74958;BME280;63741;42.624;26.276;2023-02-28T09:54:43;100714.66;;;9.61;68.55
74958;BME280;63741;42.624;26.276;2023-02-28T10:05:20;100724.09;;;9.81;68.72
74958;BME280;63741;42.624;26.276;2023-02-28T10:08:46;100713.34;;;9.84;69.10
74958;BME280;63741;42.624;26.276;2023-02-28T10:10:58;100711.13;;;9.77;68.90
74958;BME280;63741;42.624;26.276;2023-02-28T10:16:25;100696.75;;;9.67;68.37
74958;BME280;63741;42.624;26.276;2023-02-28T10:21:39;100693.63;;;9.60;68.73
74958;BME280;63741;42.624;26.276;2023-02-28T10:24:30;100690.03;;;9.45;68.63
74958;BME280;63741;42.624;26.276;2023-02-28T10:27:13;100679.00;;;9.69;69.14
74958;BME280;63741;42.624;26.276;2023-02-28T10:29:52;100683.22;;;9.57;68.43
74958;BME280;63741;42.624;26.276;2023-02-28T10:32:20;100679.47;;;9.45;68.82
74958;BME280;63741;42.624;26.276;2023-02-28T10:35:21;100678.25;;;9.51;69.41
74958;BME280;63741;42.624;26.276;2023-02-28T10:37:48;100679.66;;;9.42;69.26
74958;BME280;63741;42.624;26.276;2023-02-28T10:43:02;100670.84;;;9.10;70.09
74958;BME280;63741;42.624;26.276;2023-02-28T10:45:31;100680.66;;;9.40;70.53
74958;BME280;63741;42.624;26.276;2023-02-28T10:48:30;100663.28;;;9.35;69.44
74958;BME280;63741;42.624;26.276;2023-02-28T10:50:57;100660.97;;;9.45;69.41
74958;BME280;63741;42.624;26.276;2023-02-28T10:53:33;100654.75;;;9.62;69.60
74958;BME280;63741;42.624;26.276;2023-02-28T10:56:17;100650.09;;;9.81;68.53
74958;BME280;63741;42.624;26.276;2023-02-28T10:58:46;100639.53;;;9.81;68.06
74958;BME280;63741;42.624;26.276;2023-02-28T11:01:17;100641.63;;;9.91;67.94
74958;BME280;63741;42.624;26.276;2023-02-28T11:03:45;100632.72;;;9.77;68.34
74958;BME280;63741;42.624;26.276;2023-02-28T11:06:37;100621.69;;;9.55;69.52
74958;BME280;63741;42.624;26.276;2023-02-28T11:09:21;100626.59;;;9.77;68.23
74958;BME280;63741;42.624;26.276;2023-02-28T11:11:49;100639.06;;;10.05;68.12
74958;BME280;63741;42.624;26.276;2023-02-28T11:14:21;100630.25;;;10.04;68.58
74958;BME280;63741;42.624;26.276;2023-02-28T11:16:48;100626.47;;;10.08;66.90
74958;BME280;63741;42.624;26.276;2023-02-28T11:19:20;100627.03;;;9.99;68.51
74958;BME280;63741;42.624;26.276;2023-02-28T11:21:57;100634.47;;;10.23;67.69
74958;BME280;63741;42.624;26.276;2023-02-28T11:24:33;100621.13;;;9.80;68.93
74958;BME280;63741;42.624;26.276;2023-02-28T11:27:02;100627.63;;;9.74;68.35
74958;BME280;63741;42.624;26.276;2023-02-28T11:29:33;100628.50;;;9.59;69.66
74958;BME280;63741;42.624;26.276;2023-02-28T11:34:35;100634.56;;;9.61;69.45
74958;BME280;63741;42.624;26.276;2023-02-28T11:37:04;100633.97;;;9.56;69.21
74958;BME280;63741;42.624;26.276;2023-02-28T11:39:33;100637.31;;;9.28;70.40
74958;BME280;63741;42.624;26.276;2023-02-28T11:47:47;100619.03;;;9.09;70.76
74958;BME280;63741;42.624;26.276;2023-02-28T11:57:03;100641.16;;;9.06;71.84
74958;BME280;63741;42.624;26.276;2023-02-28T12:02:22;100635.44;;;8.82;72.42
74958;BME280;63741;42.624;26.276;2023-02-28T12:07:49;100643.03;;;8.89;72.18
74958;BME280;63741;42.624;26.276;2023-02-28T12:10:29;100645.22;;;8.80;71.94
74958;BME280;63741;42.624;26.276;2023-02-28T12:21:42;100631.00;;;8.67;73.72
74958;BME280;63741;42.624;26.276;2023-02-28T12:27:02;100630.69;;;8.56;73.17
74958;BME280;63741;42.624;26.276;2023-02-28T12:29:43;100637.31;;;8.47;74.27
74958;BME280;63741;42.624;26.276;2023-02-28T12:32:16;100622.78;;;8.56;73.77
74958;BME280;63741;42.624;26.276;2023-02-28T12:34:52;100624.53;;;8.73;72.21
74958;BME280;63741;42.624;26.276;2023-02-28T12:37:28;100603.63;;;8.85;72.74
74958;BME280;63741;42.624;26.276;2023-02-28T12:40:02;100602.69;;;8.71;73.58
74958;BME280;63741;42.624;26.276;2023-02-28T12:42:39;100597.03;;;8.61;73.54
74958;BME280;63741;42.624;26.276;2023-02-28T12:45:18;100592.84;;;8.57;74.33
74958;BME280;63741;42.624;26.276;2023-02-28T12:47:49;100612.78;;;8.63;73.79
74958;BME280;63741;42.624;26.276;2023-02-28T12:50:17;100609.78;;;8.53;74.38
74958;BME280;63741;42.624;26.276;2023-02-28T12:58:40;100618.84;;;8.30;76.66
74958;BME280;63741;42.624;26.276;2023-02-28T13:09:34;100586.06;;;8.35;76.77
74958;BME280;63741;42.624;26.276;2023-02-28T13:12:12;100598.34;;;8.37;76.50
74958;BME280;63741;42.624;26.276;2023-02-28T13:14:40;100601.59;;;8.24;78.14
74958;BME280;63741;42.624;26.276;2023-02-28T13:20:14;100601.59;;;8.24;77.08
74958;BME280;63741;42.624;26.276;2023-02-28T13:22:44;100594.63;;;8.41;76.26
74958;BME280;63741;42.624;26.276;2023-02-28T13:27:57;100595.56;;;8.22;76.84
74958;BME280;63741;42.624;26.276;2023-02-28T13:33:36;100607.66;;;8.26;77.50
74958;BME280;63741;42.624;26.276;2023-02-28T13:36:30;100603.84;;;8.32;76.52
74958;BME280;63741;42.624;26.276;2023-02-28T13:39:03;100597.25;;;8.23;78.14
74958;BME280;63741;42.624;26.276;2023-02-28T13:49:29;100602.31;;;8.10;78.08
74958;BME280;63741;42.624;26.276;2023-02-28T14:01:04;100597.66;;;8.16;75.65
74958;BME280;63741;42.624;26.276;2023-02-28T14:09:02;100600.88;;;8.21;76.17
74958;BME280;63741;42.624;26.276;2023-02-28T14:11:39;100588.53;;;8.05;75.49
74958;BME280;63741;42.624;26.276;2023-02-28T14:14:08;100587.59;;;8.06;75.74
74958;BME280;63741;42.624;26.276;2023-02-28T14:16:44;100594.78;;;8.20;76.04
74958;BME280;63741;42.624;26.276;2023-02-28T14:28:08;100599.16;;;8.04;75.51
74958;BME280;63741;42.624;26.276;2023-02-28T14:31:00;100605.50;;;7.82;77.15
74958;BME280;63741;42.624;26.276;2023-02-28T14:36:22;100612.25;;;7.88;77.53
74958;BME280;63741;42.624;26.276;2023-02-28T14:39:00;100616.56;;;7.72;77.10
74958;BME280;63741;42.624;26.276;2023-02-28T14:41:31;100610.63;;;7.68;78.12
74958;BME280;63741;42.624;26.276;2023-02-28T14:43:59;100619.63;;;7.81;77.62
74958;BME280;63741;42.624;26.276;2023-02-28T14:46:36;100621.56;;;7.78;76.45
74958;BME280;63741;42.624;26.276;2023-02-28T14:49:06;100621.31;;;7.65;77.56
74958;BME280;63741;42.624;26.276;2023-02-28T14:51:38;100614.34;;;7.64;77.25
74958;BME280;63741;42.624;26.276;2023-02-28T14:54:05;100621.28;;;7.48;78.44
74958;BME280;63741;42.624;26.276;2023-02-28T14:56:39;100626.66;;;7.64;77.27
74958;BME280;63741;42.624;26.276;2023-02-28T15:02:14;100623.94;;;7.65;76.96
74958;BME280;63741;42.624;26.276;2023-02-28T15:04:41;100625.25;;;7.56;77.36
74958;BME280;63741;42.624;26.276;2023-02-28T15:07:10;100638.09;;;7.63;78.11
74958;BME280;63741;42.624;26.276;2023-02-28T15:09:38;100637.25;;;7.62;77.51
74958;BME280;63741;42.624;26.276;2023-02-28T15:12:05;100640.25;;;7.54;77.41
74958;BME280;63741;42.624;26.276;2023-02-28T15:14:34;100642.38;;;7.65;78.34
74958;BME280;63741;42.624;26.276;2023-02-28T15:17:15;100645.59;;;7.53;78.04
74958;BME280;63741;42.624;26.276;2023-02-28T15:19:48;100646.31;;;7.56;77.86
74958;BME280;63741;42.624;26.276;2023-02-28T15:22:23;100651.47;;;7.58;77.20
74958;BME280;63741;42.624;26.276;2023-02-28T15:24:55;100649.47;;;7.63;77.59
74958;BME280;63741;42.624;26.276;2023-02-28T15:27:31;100654.50;;;7.68;77.24
74958;BME280;63741;42.624;26.276;2023-02-28T15:30:04;100653.84;;;7.64;77.95